createdAt,value
2023-03-06T00:00:46.111Z,13.40
2023-03-06T00:03:19.468Z,14.80
2023-03-06T00:05:48.053Z,14.20
2023-03-06T00:08:16.387Z,13.50
2023-03-06T00:10:44.687Z,14.30
2023-03-06T00:13:16.752Z,13.60
2023-03-06T00:15:45.945Z,13.80
2023-03-06T00:18:14.792Z,14.20
2023-03-06T00:20:44.102Z,13.00
2023-03-06T00:23:12.388Z,13.50
2023-03-06T00:25:44.802Z,12.10
2023-03-06T00:28:15.893Z,12.10
2023-03-06T00:30:46.222Z,11.60
2023-03-06T00:33:14.741Z,12.00
2023-03-06T00:35:43.094Z,11.80
2023-03-06T00:38:14.930Z,13.40
2023-03-06T00:40:43.396Z,12.60
2023-03-06T00:43:12.376Z,11.50
2023-03-06T00:45:40.587Z,12.60
2023-03-06T00:48:09.831Z,11.50
2023-03-06T00:50:38.072Z,10.60
2023-03-06T00:53:06.259Z,10.60
2023-03-06T00:55:34.464Z,9.70
2023-03-06T00:58:02.853Z,9.90
2023-03-06T01:00:31.007Z,8.60
2023-03-06T01:02:59.123Z,9.90
2023-03-06T01:05:27.358Z,9.70
2023-03-06T01:07:55.552Z,9.30
2023-03-06T01:10:23.794Z,8.20
2023-03-06T01:12:52.003Z,8.10
2023-03-06T01:15:20.987Z,7.70
2023-03-06T01:17:55.506Z,8.50
2023-03-06T01:20:23.719Z,6.70
2023-03-06T01:22:51.996Z,8.50
2023-03-06T01:25:20.291Z,8.40
2023-03-06T01:27:48.418Z,7.70
2023-03-06T01:30:17.197Z,7.50
2023-03-06T01:32:45.678Z,5.90
2023-03-06T01:35:14.390Z,5.90
2023-03-06T01:37:42.608Z,6.60
2023-03-06T01:40:12.562Z,6.10
2023-03-06T01:42:42.257Z,5.80
2023-03-06T01:45:13.291Z,6.00
2023-03-06T01:47:41.511Z,5.80
2023-03-06T01:50:11.491Z,6.00
2023-03-06T01:52:46.587Z,5.20
2023-03-06T01:55:19.550Z,4.90
2023-03-06T01:57:55.707Z,5.50
2023-03-06T02:00:26.983Z,5.30
2023-03-06T02:03:22.763Z,5.00
2023-03-06T02:05:51.015Z,5.90
2023-03-06T02:08:21.881Z,4.90
2023-03-06T02:11:02.389Z,4.90
2023-03-06T02:13:31.033Z,5.90
2023-03-06T02:15:59.647Z,4.90
2023-03-06T02:18:29.599Z,4.30
2023-03-06T02:21:02.638Z,4.40
2023-03-06T02:24:13.979Z,4.50
2023-03-06T02:26:44.129Z,4.80
2023-03-06T02:29:12.597Z,4.80
2023-03-06T02:31:40.861Z,5.10
2023-03-06T02:34:15.157Z,5.60
2023-03-06T02:36:47.811Z,4.90
2023-03-06T02:39:20.339Z,4.70
2023-03-06T02:44:17.858Z,5.30
2023-03-06T02:46:45.953Z,5.50
2023-03-06T02:49:14.411Z,5.50
2023-03-06T02:51:42.593Z,5.80
2023-03-06T02:54:11.253Z,5.70
2023-03-06T02:56:39.369Z,5.80
2023-03-06T02:59:08.627Z,5.70
2023-03-06T03:01:37.082Z,6.10
2023-03-06T03:04:05.791Z,6.00
2023-03-06T03:06:34.308Z,6.20
2023-03-06T03:09:03.458Z,5.60
2023-03-06T03:11:31.646Z,6.50
2023-03-06T03:13:59.973Z,6.20
2023-03-06T03:16:28.896Z,6.60
2023-03-06T03:18:59.338Z,6.50
2023-03-06T03:21:27.832Z,6.80
2023-03-06T03:23:56.478Z,6.30
2023-03-06T03:26:26.242Z,6.70
2023-03-06T03:29:08.428Z,6.60
2023-03-06T03:31:37.062Z,8.00
2023-03-06T03:34:05.620Z,7.60
2023-03-06T03:36:36.216Z,6.80
2023-03-06T03:39:04.988Z,7.20
2023-03-06T03:41:34.188Z,7.00
2023-03-06T03:44:04.247Z,7.70
2023-03-06T03:46:33.409Z,7.50
2023-03-06T03:49:02.165Z,7.20
2023-03-06T03:51:30.322Z,7.50
2023-03-06T03:53:59.049Z,7.40
2023-03-06T03:56:30.004Z,7.10
2023-03-06T03:59:09.249Z,7.50
2023-03-06T04:01:43.282Z,7.60
2023-03-06T04:04:11.561Z,7.50
2023-03-06T04:06:40.098Z,7.50
2023-03-06T04:09:08.576Z,7.60
2023-03-06T04:11:37.023Z,7.80
2023-03-06T04:14:05.412Z,9.00
2023-03-06T04:16:33.877Z,9.20
2023-03-06T04:19:02.072Z,7.60
2023-03-06T04:21:31.134Z,9.00
2023-03-06T04:23:59.209Z,9.20
2023-03-06T04:26:27.404Z,8.80
2023-03-06T04:28:56.355Z,8.70
2023-03-06T04:31:24.872Z,8.60
2023-03-06T04:33:53.152Z,8.80
2023-03-06T04:36:33.158Z,15.80
2023-03-06T04:39:05.846Z,15.60
2023-03-06T04:41:34.468Z,10.60
2023-03-06T04:44:03.528Z,9.60
2023-03-06T04:46:31.848Z,14.30
2023-03-06T04:49:00.755Z,17.40
2023-03-06T04:51:29.696Z,24.30
2023-03-06T04:53:57.818Z,14.40
2023-03-06T04:56:25.935Z,11.90
2023-03-06T04:58:54.004Z,11.10
2023-03-06T05:01:22.303Z,10.40
2023-03-06T05:03:50.458Z,9.70
2023-03-06T05:06:18.561Z,10.00
2023-03-06T05:08:47.366Z,10.50
2023-03-06T05:11:15.607Z,14.90
2023-03-06T05:13:43.723Z,32.30
2023-03-06T05:16:12.101Z,16.80
2023-03-06T05:18:40.252Z,30.90
2023-03-06T05:21:08.606Z,23.10
2023-03-06T05:23:38.731Z,19.40
2023-03-06T05:26:11.924Z,17.30
2023-03-06T05:31:09.113Z,24.20
2023-03-06T05:33:37.357Z,21.40
2023-03-06T05:36:09.330Z,16.80
2023-03-06T05:38:37.549Z,18.40
2023-03-06T05:41:05.677Z,15.00
2023-03-06T05:43:33.764Z,12.80
2023-03-06T05:46:06.564Z,13.60
2023-03-06T05:48:36.391Z,14.60
2023-03-06T05:51:05.859Z,13.60
2023-03-06T05:53:34.120Z,12.20
2023-03-06T05:56:04.615Z,12.00
2023-03-06T05:58:34.752Z,11.00
2023-03-06T06:01:12.669Z,10.20
2023-03-06T06:03:41.565Z,11.20
2023-03-06T06:06:11.765Z,10.10
2023-03-06T06:08:40.569Z,10.30
2023-03-06T06:11:10.811Z,9.70
2023-03-06T06:13:40.196Z,9.30
2023-03-06T06:16:15.935Z,10.40
2023-03-06T06:18:44.387Z,10.10
2023-03-06T06:21:14.718Z,10.90
2023-03-06T06:23:42.943Z,11.00
2023-03-06T06:26:11.522Z,11.10
2023-03-06T06:28:39.727Z,10.60
2023-03-06T06:31:12.599Z,11.30
2023-03-06T06:33:41.759Z,10.90
2023-03-06T06:36:20.868Z,10.90
2023-03-06T06:38:50.103Z,10.50
2023-03-06T06:41:39.222Z,12.20
2023-03-06T06:44:08.991Z,10.90
2023-03-06T06:49:25.964Z,11.30
2023-03-06T06:51:54.065Z,11.90
2023-03-06T06:54:22.468Z,12.60
2023-03-06T06:56:50.985Z,13.30
2023-03-06T06:59:19.589Z,13.30
2023-03-06T07:01:47.816Z,13.10
2023-03-06T07:04:19.142Z,11.80
2023-03-06T07:06:47.364Z,11.80
2023-03-06T07:09:15.504Z,12.40
2023-03-06T07:11:46.462Z,11.00
2023-03-06T07:14:14.610Z,10.80
2023-03-06T07:16:42.762Z,11.20
2023-03-06T07:19:10.852Z,9.60
2023-03-06T07:21:39.081Z,10.10
2023-03-06T07:24:07.440Z,10.60
2023-03-06T07:26:35.847Z,10.70
2023-03-06T07:29:04.610Z,11.60
2023-03-06T07:31:32.946Z,11.10
2023-03-06T07:34:03.168Z,9.80
2023-03-06T07:36:34.413Z,11.20
2023-03-06T07:39:02.595Z,10.70
2023-03-06T07:41:30.771Z,9.40
2023-03-06T07:43:59.080Z,8.40
2023-03-06T07:46:27.462Z,9.10
2023-03-06T07:48:55.667Z,7.80
2023-03-06T07:51:23.850Z,8.70
2023-03-06T07:53:52.102Z,10.40
2023-03-06T07:56:20.286Z,10.20
2023-03-06T07:58:48.826Z,9.30
2023-03-06T08:01:20.058Z,8.90
2023-03-06T08:03:50.427Z,8.10
2023-03-06T08:06:24.492Z,9.60
2023-03-06T08:08:54.755Z,8.80
2023-03-06T08:11:27.417Z,9.90
2023-03-06T08:13:57.105Z,9.20
2023-03-06T08:16:27.854Z,10.10
2023-03-06T08:18:57.047Z,9.80
2023-03-06T08:21:27.863Z,9.40
2023-03-06T08:23:56.701Z,9.30
2023-03-06T08:26:31.152Z,10.60
2023-03-06T08:29:01.144Z,9.70
2023-03-06T08:31:49.782Z,9.10
2023-03-06T08:34:21.049Z,8.80
2023-03-06T08:36:49.131Z,8.60
2023-03-06T08:39:17.330Z,7.90
2023-03-06T08:41:45.684Z,8.50
2023-03-06T08:44:13.764Z,9.50
2023-03-06T08:46:42.008Z,9.10
2023-03-06T08:49:12.202Z,8.10
2023-03-06T08:51:40.414Z,8.00
2023-03-06T08:54:11.116Z,9.30
2023-03-06T08:56:39.350Z,8.20
2023-03-06T08:59:09.506Z,8.10
2023-03-06T09:01:38.824Z,8.20
2023-03-06T09:04:10.762Z,7.30
2023-03-06T09:06:42.016Z,6.90
2023-03-06T09:09:10.716Z,7.40
2023-03-06T09:11:39.520Z,6.80
2023-03-06T09:14:07.640Z,7.30
2023-03-06T09:16:35.843Z,6.10
2023-03-06T09:19:03.976Z,7.30
2023-03-06T09:21:32.249Z,6.80
2023-03-06T09:24:02.025Z,6.90
2023-03-06T09:26:43.463Z,7.40
2023-03-06T09:29:13.712Z,6.40
2023-03-06T09:31:41.764Z,6.30
2023-03-06T09:34:10.129Z,6.20
2023-03-06T09:36:54.997Z,6.40
2023-03-06T09:39:25.951Z,6.40
2023-03-06T09:41:54.674Z,6.00
2023-03-06T09:44:31.462Z,5.70
2023-03-06T09:47:33.579Z,5.60
2023-03-06T09:50:23.029Z,6.10
2023-03-06T09:53:16.508Z,5.20
2023-03-06T09:55:51.810Z,6.50
2023-03-06T09:58:26.144Z,6.00
2023-03-06T10:01:11.079Z,5.40
2023-03-06T10:03:59.367Z,5.50
2023-03-06T10:06:33.285Z,4.80
2023-03-06T10:09:19.334Z,4.50
2023-03-06T10:11:54.965Z,5.10
2023-03-06T10:15:05.890Z,4.80
2023-03-06T10:17:37.799Z,4.80
2023-03-06T10:20:20.152Z,5.10
2023-03-06T10:23:07.017Z,6.20
2023-03-06T10:25:44.339Z,5.40
2023-03-06T10:28:25.065Z,5.30
2023-03-06T10:31:01.588Z,5.50
2023-03-06T10:33:50.923Z,5.30
2023-03-06T10:36:21.358Z,5.20
2023-03-06T10:38:49.512Z,5.20
2023-03-06T10:41:36.022Z,5.20
2023-03-06T10:44:04.214Z,4.80
2023-03-06T10:46:44.766Z,4.90
2023-03-06T10:49:51.391Z,4.40
2023-03-06T10:52:23.057Z,6.60
2023-03-06T10:54:51.206Z,4.30
2023-03-06T10:57:20.908Z,4.40
2023-03-06T11:00:08.581Z,4.70
2023-03-06T11:02:41.248Z,6.20
2023-03-06T11:05:21.027Z,6.00
2023-03-06T11:08:00.511Z,4.80
2023-03-06T11:10:31.540Z,5.70
2023-03-06T11:13:07.683Z,4.70
2023-03-06T11:15:36.033Z,4.80
2023-03-06T11:18:35.835Z,4.20
2023-03-06T11:21:07.495Z,4.10
2023-03-06T11:23:43.522Z,4.20
2023-03-06T11:26:17.456Z,4.10
2023-03-06T11:29:07.354Z,4.30
2023-03-06T11:31:41.200Z,11.20
2023-03-06T11:34:12.685Z,23.10
2023-03-06T11:37:08.452Z,5.70
2023-03-06T11:39:39.848Z,5.20
2023-03-06T11:42:28.903Z,4.90
2023-03-06T11:45:26.764Z,4.80
2023-03-06T11:48:13.768Z,5.10
2023-03-06T11:50:48.241Z,5.40
2023-03-06T11:53:39.466Z,5.00
2023-03-06T11:56:16.716Z,5.30
2023-03-06T11:59:03.558Z,5.80
2023-03-06T12:01:50.872Z,5.10
2023-03-06T12:04:31.058Z,4.80
2023-03-06T12:07:24.103Z,4.70
2023-03-06T12:09:55.068Z,5.60
2023-03-06T12:12:39.828Z,5.50
2023-03-06T12:15:36.051Z,5.60
2023-03-06T12:18:52.439Z,6.50
2023-03-06T12:21:56.552Z,4.80
2023-03-06T12:24:25.970Z,4.60
2023-03-06T12:27:12.178Z,6.00
2023-03-06T12:30:11.234Z,5.40
2023-03-06T12:32:57.971Z,4.90
2023-03-06T12:35:47.927Z,4.90
2023-03-06T12:38:47.220Z,4.30
2023-03-06T12:41:21.407Z,4.20
2023-03-06T12:44:01.591Z,3.50
2023-03-06T12:46:30.721Z,4.00
2023-03-06T12:49:26.303Z,3.20
2023-03-06T12:52:00.681Z,3.00
2023-03-06T12:54:33.743Z,2.80
2023-03-06T12:59:47.985Z,2.80
2023-03-06T13:02:16.098Z,3.20
2023-03-06T13:05:12.337Z,3.60
2023-03-06T13:07:49.403Z,2.80
2023-03-06T13:10:27.873Z,3.60
2023-03-06T13:13:01.233Z,3.60
2023-03-06T13:16:26.621Z,3.90
2023-03-06T13:19:00.797Z,3.50
2023-03-06T13:21:47.468Z,4.30
2023-03-06T13:24:25.206Z,3.90
2023-03-06T13:26:59.495Z,3.60
2023-03-06T13:29:36.584Z,3.40
2023-03-06T13:32:26.734Z,3.40
2023-03-06T13:34:54.978Z,3.50
2023-03-06T13:37:23.516Z,3.00
2023-03-06T13:39:58.482Z,3.10
2023-03-06T13:42:34.482Z,3.60
2023-03-06T13:45:27.104Z,3.20
2023-03-06T13:48:24.904Z,3.40
2023-03-06T13:50:49.736Z,4.40
2023-03-06T13:53:17.784Z,3.70
2023-03-06T13:56:08.652Z,3.80
2023-03-06T13:59:07.691Z,3.60
2023-03-06T14:02:00.764Z,6.20
2023-03-06T14:04:34.912Z,4.20
2023-03-06T14:07:23.660Z,3.70
2023-03-06T14:10:08.702Z,3.00
2023-03-06T14:12:48.862Z,3.10
2023-03-06T14:15:28.298Z,3.40
2023-03-06T14:18:01.215Z,4.00
2023-03-06T14:23:35.606Z,3.10
2023-03-06T14:26:20.589Z,11.50
2023-03-06T14:29:02.954Z,3.60
2023-03-06T14:31:34.777Z,3.20
2023-03-06T14:34:19.966Z,4.00
2023-03-06T14:36:50.886Z,4.00
2023-03-06T14:39:41.626Z,4.10
2023-03-06T14:42:19.383Z,4.50
2023-03-06T14:44:49.944Z,5.10
2023-03-06T14:47:28.196Z,4.40
2023-03-06T14:50:19.717Z,3.40
2023-03-06T14:52:48.743Z,3.50
2023-03-06T14:55:22.549Z,3.60
2023-03-06T14:58:15.337Z,3.30
2023-03-06T15:00:47.086Z,3.60
2023-03-06T15:03:43.678Z,3.80
2023-03-06T15:06:18.079Z,3.80
2023-03-06T15:08:50.405Z,4.10
2023-03-06T15:11:18.501Z,4.10
2023-03-06T15:14:04.562Z,4.10
2023-03-06T15:16:32.846Z,4.70
2023-03-06T15:19:04.118Z,4.60
2023-03-06T15:21:38.428Z,6.40
2023-03-06T15:24:32.055Z,10.90
2023-03-06T15:29:37.948Z,3.40
2023-03-06T15:32:34.364Z,6.30
2023-03-06T15:35:24.685Z,6.50
2023-03-06T15:37:53.003Z,3.50
2023-03-06T15:40:24.102Z,3.30
2023-03-06T15:42:52.224Z,3.10
2023-03-06T15:45:23.089Z,2.80
2023-03-06T15:47:53.057Z,2.60
2023-03-06T15:50:26.781Z,2.30
2023-03-06T15:52:55.020Z,2.30
2023-03-06T15:55:26.261Z,2.90
2023-03-06T15:57:59.896Z,2.80
2023-03-06T16:00:34.445Z,4.20
2023-03-06T16:03:03.358Z,3.30
2023-03-06T16:05:32.343Z,3.90
2023-03-06T16:08:00.605Z,3.70
2023-03-06T16:10:33.262Z,3.70
2023-03-06T16:13:08.646Z,3.90
2023-03-06T16:15:40.338Z,3.70
2023-03-06T16:18:11.909Z,4.70
2023-03-06T16:20:40.340Z,5.40
2023-03-06T16:23:10.805Z,5.00
2023-03-06T16:25:41.077Z,4.20
2023-03-06T16:28:14.840Z,4.30
2023-03-06T16:30:44.644Z,3.30
2023-03-06T16:33:14.510Z,3.60
2023-03-06T16:35:44.645Z,5.80
2023-03-06T16:38:12.788Z,5.30
2023-03-06T16:40:44.136Z,5.40
2023-03-06T16:43:13.706Z,6.90
2023-03-06T16:45:42.668Z,13.70
2023-03-06T16:48:16.367Z,47.00
2023-03-06T16:50:45.203Z,29.80
2023-03-06T16:53:14.025Z,20.30
2023-03-06T16:55:42.254Z,12.60
2023-03-06T16:58:10.325Z,13.70
2023-03-06T17:00:38.727Z,10.60
2023-03-06T17:03:07.609Z,11.50
2023-03-06T17:05:37.059Z,11.40
2023-03-06T17:08:05.635Z,13.90
2023-03-06T17:10:33.789Z,16.00
2023-03-06T17:13:02.013Z,17.30
2023-03-06T17:15:30.111Z,16.00
2023-03-06T17:17:58.266Z,14.10
2023-03-06T17:20:26.524Z,13.20
2023-03-06T17:22:55.067Z,11.20
2023-03-06T17:25:23.656Z,11.70
2023-03-06T17:27:52.275Z,11.30
2023-03-06T17:30:21.126Z,11.00
2023-03-06T17:32:49.275Z,11.10
2023-03-06T17:35:17.651Z,11.80
2023-03-06T17:37:45.793Z,12.50
2023-03-06T17:40:15.710Z,13.30
2023-03-06T17:42:46.337Z,12.20
2023-03-06T17:45:14.516Z,15.10
2023-03-06T17:47:42.697Z,13.80
2023-03-06T17:50:11.627Z,15.90
2023-03-06T17:52:40.077Z,18.90
2023-03-06T17:55:08.788Z,18.30
2023-03-06T17:57:39.605Z,14.20
2023-03-06T18:00:08.832Z,15.70
2023-03-06T18:02:45.531Z,17.40
2023-03-06T18:05:13.864Z,20.50
2023-03-06T18:07:42.044Z,13.20
2023-03-06T18:10:10.658Z,18.60
2023-03-06T18:12:38.821Z,18.70
2023-03-06T18:15:07.845Z,92.30
2023-03-06T18:17:35.991Z,61.60
2023-03-06T18:20:05.617Z,26.30
2023-03-06T18:22:33.717Z,22.90
2023-03-06T18:25:02.816Z,20.10
2023-03-06T18:27:33.810Z,21.10
2023-03-06T18:30:02.335Z,23.70
2023-03-06T18:32:30.680Z,27.90
2023-03-06T18:34:58.898Z,24.70
2023-03-06T18:37:27.083Z,28.60
2023-03-06T18:39:55.229Z,25.70
2023-03-06T18:42:24.900Z,26.40
2023-03-06T18:44:53.076Z,17.80
2023-03-06T18:47:21.292Z,15.70
2023-03-06T18:49:49.482Z,13.70
2023-03-06T18:52:17.664Z,17.20
2023-03-06T18:54:46.201Z,19.40
2023-03-06T18:57:14.335Z,16.10
2023-03-06T18:59:42.523Z,20.20
2023-03-06T19:02:12.586Z,18.70
2023-03-06T19:04:40.775Z,21.60
2023-03-06T19:07:09.095Z,25.00
2023-03-06T19:09:37.228Z,25.70
2023-03-06T19:12:05.887Z,25.90
2023-03-06T19:14:34.513Z,26.10
2023-03-06T19:17:02.902Z,27.50
2023-03-06T19:19:30.988Z,23.50
2023-03-06T19:21:59.540Z,20.60
2023-03-06T19:24:27.840Z,16.90
2023-03-06T19:26:58.480Z,12.50
2023-03-06T19:29:26.653Z,11.00
2023-03-06T19:31:57.305Z,13.50
2023-03-06T19:34:25.638Z,11.00
2023-03-06T19:36:53.851Z,14.90
2023-03-06T19:39:22.233Z,19.20
2023-03-06T19:41:50.618Z,17.40
2023-03-06T19:44:18.778Z,22.70
2023-03-06T19:46:46.889Z,23.10
2023-03-06T19:49:18.186Z,22.10
2023-03-06T19:51:46.718Z,19.90
2023-03-06T19:54:14.923Z,19.80
2023-03-06T19:56:43.088Z,19.60
2023-03-06T19:59:11.194Z,18.40
2023-03-06T20:01:39.883Z,23.80
2023-03-06T20:04:08.149Z,21.70
2023-03-06T20:06:39.547Z,21.30
2023-03-06T20:09:09.005Z,18.80
2023-03-06T20:11:38.037Z,19.60
2023-03-06T20:14:07.929Z,21.70
2023-03-06T20:16:36.623Z,19.30
2023-03-06T20:19:05.759Z,19.10
2023-03-06T20:21:38.235Z,19.20
2023-03-06T20:24:08.014Z,18.60
2023-03-06T20:26:38.256Z,19.00
2023-03-06T20:29:06.562Z,18.30
2023-03-06T20:31:34.715Z,15.50
2023-03-06T20:34:04.581Z,16.70
2023-03-06T20:36:36.414Z,16.60
2023-03-06T20:39:07.186Z,14.30
2023-03-06T20:41:36.332Z,11.70
2023-03-06T20:44:06.335Z,10.10
2023-03-06T20:46:35.504Z,9.90
2023-03-06T20:49:05.064Z,10.50
2023-03-06T20:51:37.633Z,9.90
2023-03-06T20:54:08.387Z,10.20
2023-03-06T20:56:39.655Z,12.80
2023-03-06T20:59:10.840Z,12.10
2023-03-06T21:01:42.031Z,11.80
2023-03-06T21:04:13.915Z,13.70
2023-03-06T21:06:46.657Z,12.70
2023-03-06T21:09:17.486Z,12.80
2023-03-06T21:11:46.021Z,20.40
2023-03-06T21:14:14.864Z,17.20
2023-03-06T21:16:43.984Z,14.60
2023-03-06T21:19:12.484Z,13.00
2023-03-06T21:21:40.610Z,15.30
2023-03-06T21:24:08.868Z,15.50
2023-03-06T21:26:37.092Z,15.30
2023-03-06T21:29:05.450Z,13.10
2023-03-06T21:31:34.325Z,12.90
2023-03-06T21:34:05.053Z,12.40
2023-03-06T21:36:34.120Z,13.30
2023-03-06T21:39:06.447Z,11.90
2023-03-06T21:41:34.966Z,12.50
2023-03-06T21:44:05.620Z,10.50
2023-03-06T21:46:34.631Z,9.30
2023-03-06T21:49:04.523Z,10.00
2023-03-06T21:51:33.634Z,8.80
2023-03-06T21:54:03.071Z,10.50
2023-03-06T21:56:33.573Z,9.40
2023-03-06T21:59:01.868Z,10.80
2023-03-06T22:01:30.508Z,10.70
2023-03-06T22:04:00.132Z,11.70
2023-03-06T22:06:30.411Z,11.70
2023-03-06T22:09:00.024Z,9.70
2023-03-06T22:11:31.501Z,10.80
2023-03-06T22:14:00.090Z,10.30
2023-03-06T22:16:28.466Z,11.30
2023-03-06T22:18:56.728Z,11.70
2023-03-06T22:21:24.960Z,13.20
2023-03-06T22:23:57.508Z,13.10
2023-03-06T22:26:27.653Z,13.10
2023-03-06T22:28:56.012Z,13.50
2023-03-06T22:31:26.704Z,13.00
2023-03-06T22:33:56.792Z,14.20
2023-03-06T22:36:25.777Z,15.00
2023-03-06T22:39:02.298Z,16.10
2023-03-06T22:41:31.450Z,14.80
2023-03-06T22:44:01.618Z,14.90
2023-03-06T22:46:30.579Z,14.60
2023-03-06T22:49:02.490Z,14.10
2023-03-06T22:51:31.132Z,15.30
2023-03-06T22:53:59.470Z,16.40
2023-03-06T22:56:27.547Z,15.20
2023-03-06T22:58:57.891Z,14.50
2023-03-06T23:01:28.993Z,14.40
2023-03-06T23:04:00.177Z,14.00
2023-03-06T23:06:37.155Z,13.40
2023-03-06T23:09:15.199Z,13.00
2023-03-06T23:12:01.808Z,13.80
2023-03-06T23:14:51.342Z,15.30
2023-03-06T23:17:38.469Z,16.00
2023-03-06T23:20:25.314Z,16.60
2023-03-06T23:23:12.246Z,15.90
2023-03-06T23:25:44.387Z,17.50
2023-03-06T23:28:12.824Z,16.80
2023-03-06T23:30:42.312Z,16.90
2023-03-06T23:33:11.031Z,17.00
2023-03-06T23:35:39.253Z,15.90
2023-03-06T23:38:07.822Z,17.10
2023-03-06T23:40:38.792Z,15.30
2023-03-06T23:43:06.928Z,14.70
2023-03-06T23:45:35.027Z,15.30
2023-03-06T23:48:08.013Z,17.10
2023-03-06T23:50:39.713Z,18.50
2023-03-06T23:53:07.854Z,19.60
2023-03-06T23:55:36.098Z,18.50
2023-03-06T23:58:04.352Z,18.20
